Shepherd's Bush, United Kingdom
Current Conditions -  °F | °C
As of 3:50 AM on Wednesday 22 Oct 2014 (Local Time) from EGWU Reporting Station
Few Clouds Few Clouds  
Wind Chill: 38°   Ceiling: Unl
Heat Index: 45°   Visibility: 6mi
Dew Point: 36°   Wind: 15mph
Humidity: 71%   Direction: 280°W
Pressure: 30.21"   Gusts: NA
Location:  51.51°N, 0.24°W
Report Text: EGWU 220250Z AUTO 28013KT 9999 // FEW050/// 07/02 Q1023
Loading
Personal Weather Stations






























Interactive Weather Map
Tropical Storm Tracking
New forecast layout! Learn more

10-Day Weather Forecast

Advertisements
Track Severe Weather on mobile